createdAt,value
2022-12-04T00:01:17.798Z,71.63
2022-12-04T00:03:45.848Z,71.93
2022-12-04T00:06:15.245Z,69.63
2022-12-04T00:08:43.697Z,69.00
2022-12-04T00:11:13.184Z,69.37
2022-12-04T00:13:42.870Z,68.20
2022-12-04T00:16:13.224Z,67.73
2022-12-04T00:18:41.353Z,78.57
2022-12-04T00:21:10.686Z,75.33
2022-12-04T00:23:39.760Z,66.77
2022-12-04T00:26:09.914Z,75.83
2022-12-04T00:28:38.725Z,65.73
2022-12-04T00:31:09.681Z,71.40
2022-12-04T00:33:38.128Z,70.30
2022-12-04T00:36:09.029Z,67.83
2022-12-04T00:38:37.694Z,74.00
2022-12-04T00:41:05.999Z,69.67
2022-12-04T00:43:34.578Z,70.40
2022-12-04T00:46:02.406Z,77.07
2022-12-04T00:48:31.729Z,70.97
2022-12-04T00:51:03.029Z,75.23
2022-12-04T00:53:30.823Z,74.70
2022-12-04T00:55:58.790Z,71.20
2022-12-04T00:58:26.639Z,75.93
2022-12-04T01:01:04.039Z,73.00
2022-12-04T01:03:33.509Z,80.67
2022-12-04T01:06:01.676Z,77.20
2022-12-04T01:08:29.566Z,76.93
2022-12-04T01:10:57.392Z,73.20
2022-12-04T01:13:25.944Z,74.97
2022-12-04T01:15:53.878Z,75.67
2022-12-04T01:18:21.661Z,77.97
2022-12-04T01:20:52.829Z,78.50
2022-12-04T01:23:21.074Z,82.70
2022-12-04T01:25:53.098Z,69.43
2022-12-04T01:28:21.057Z,78.17
2022-12-04T01:30:59.091Z,72.90
2022-12-04T01:33:26.891Z,76.77
2022-12-04T01:35:57.690Z,72.20
2022-12-04T01:38:26.367Z,74.90
2022-12-04T01:40:55.187Z,73.80
2022-12-04T01:43:23.384Z,73.93
2022-12-04T01:45:54.076Z,72.87
2022-12-04T01:48:27.691Z,73.97
2022-12-04T01:51:03.423Z,74.70
2022-12-04T01:53:32.391Z,72.70
2022-12-04T01:56:00.555Z,72.07
2022-12-04T01:58:32.744Z,64.83
2022-12-04T02:01:08.149Z,85.60
2022-12-04T02:03:38.001Z,75.07
2022-12-04T02:06:08.077Z,75.23
2022-12-04T02:08:37.642Z,80.97
2022-12-04T02:11:16.861Z,82.87
2022-12-04T02:13:56.398Z,83.00
2022-12-04T02:16:30.053Z,89.33
2022-12-04T02:19:08.963Z,81.43
2022-12-04T02:21:41.715Z,84.70
2022-12-04T02:24:48.418Z,74.60
2022-12-04T02:27:34.126Z,80.53
2022-12-04T02:30:06.446Z,84.90
2022-12-04T02:32:40.476Z,92.03
2022-12-04T02:35:15.960Z,85.00
2022-12-04T02:37:46.928Z,82.93
2022-12-04T02:40:22.369Z,84.13
2022-12-04T02:42:57.865Z,81.20
2022-12-04T02:45:32.530Z,81.83
2022-12-04T02:48:04.075Z,82.43
2022-12-04T02:50:35.387Z,89.60
2022-12-04T02:53:08.784Z,89.90
2022-12-04T02:55:41.706Z,94.70
2022-12-04T02:58:15.070Z,82.80
2022-12-04T03:00:46.734Z,93.67
2022-12-04T03:03:22.058Z,81.33
2022-12-04T03:05:56.888Z,89.03
2022-12-04T03:08:30.100Z,88.30
2022-12-04T03:11:01.366Z,90.33
2022-12-04T03:13:33.785Z,89.23
2022-12-04T03:16:08.407Z,93.10
2022-12-04T03:18:41.256Z,96.43
2022-12-04T03:21:13.216Z,93.27
2022-12-04T03:23:46.309Z,90.53
2022-12-04T03:26:23.001Z,95.07
2022-12-04T03:28:57.036Z,95.60
2022-12-04T03:31:36.793Z,103.17
2022-12-04T03:34:07.064Z,90.97
2022-12-04T03:36:38.605Z,87.23
2022-12-04T03:39:12.117Z,92.93
2022-12-04T03:41:59.051Z,91.07
2022-12-04T03:44:33.922Z,100.53
2022-12-04T03:47:07.876Z,94.17
2022-12-04T03:49:44.252Z,94.37
2022-12-04T03:52:18.437Z,93.13
2022-12-04T03:54:50.733Z,95.43
2022-12-04T03:57:22.777Z,99.93
2022-12-04T03:59:56.407Z,95.40
2022-12-04T04:02:29.520Z,96.50
2022-12-04T04:04:59.983Z,97.70
2022-12-04T04:07:35.797Z,101.60
2022-12-04T04:10:08.866Z,100.80
2022-12-04T04:12:41.256Z,97.37
2022-12-04T04:15:30.703Z,101.47
2022-12-04T04:18:19.468Z,88.73
2022-12-04T04:21:08.492Z,91.40
2022-12-04T04:23:59.102Z,93.27
2022-12-04T04:26:29.195Z,90.60
2022-12-04T04:28:57.014Z,91.10
2022-12-04T04:31:34.226Z,91.47
2022-12-04T04:34:19.762Z,96.57
2022-12-04T04:36:56.185Z,91.07
2022-12-04T04:39:32.953Z,101.47
2022-12-04T04:42:07.223Z,101.37
2022-12-04T04:44:42.279Z,95.20
2022-12-04T04:47:16.584Z,98.53
2022-12-04T04:49:48.500Z,97.20
2022-12-04T04:52:18.513Z,94.07
2022-12-04T04:54:47.619Z,92.43
2022-12-04T04:57:26.092Z,88.73
2022-12-04T04:59:54.208Z,90.87
2022-12-04T05:02:22.187Z,94.87
2022-12-04T05:04:51.361Z,91.83
2022-12-04T05:07:19.194Z,88.03
2022-12-04T05:09:47.059Z,93.43
2022-12-04T05:12:14.797Z,93.40
2022-12-04T05:14:42.692Z,95.33
2022-12-04T05:17:12.832Z,90.17
2022-12-04T05:19:57.008Z,97.40
2022-12-04T05:22:31.684Z,97.77
2022-12-04T05:25:00.327Z,87.70
2022-12-04T05:27:30.282Z,84.57
2022-12-04T05:29:59.543Z,94.63
2022-12-04T05:32:29.687Z,89.70
2022-12-04T05:34:58.443Z,86.67
2022-12-04T05:37:27.761Z,88.20
2022-12-04T05:39:56.047Z,91.17
2022-12-04T05:42:24.059Z,88.20
2022-12-04T05:44:51.793Z,88.50
2022-12-04T05:47:19.560Z,91.60
2022-12-04T05:49:47.356Z,90.37
2022-12-04T05:52:15.136Z,86.83
2022-12-04T05:54:44.549Z,93.27
2022-12-04T05:57:12.301Z,83.57
2022-12-04T05:59:40.323Z,82.77
2022-12-04T06:02:08.137Z,75.80
2022-12-04T06:04:37.795Z,91.40
2022-12-04T06:07:05.585Z,84.20
2022-12-04T06:09:33.664Z,85.97
2022-12-04T06:12:02.974Z,80.70
2022-12-04T06:14:36.209Z,85.93
2022-12-04T06:17:07.083Z,87.63
2022-12-04T06:19:34.901Z,72.47
2022-12-04T06:22:02.607Z,81.40
2022-12-04T06:24:30.343Z,82.57
2022-12-04T06:29:48.484Z,79.67
2022-12-04T06:32:21.230Z,78.93
2022-12-04T06:34:52.310Z,83.67
2022-12-04T06:37:20.593Z,81.53
2022-12-04T06:39:48.372Z,83.30
2022-12-04T06:42:17.106Z,89.17
2022-12-04T06:44:45.093Z,78.17
2022-12-04T06:47:14.139Z,83.33
2022-12-04T06:49:42.244Z,80.93
2022-12-04T06:52:10.033Z,87.40
2022-12-04T06:54:37.900Z,76.60
2022-12-04T06:57:05.624Z,77.33
2022-12-04T06:59:33.873Z,76.27
2022-12-04T07:02:02.074Z,74.10
2022-12-04T07:04:31.353Z,74.43
2022-12-04T07:06:59.357Z,74.23
2022-12-04T07:09:27.009Z,77.03
2022-12-04T07:11:55.094Z,81.53
2022-12-04T07:14:22.993Z,79.73
2022-12-04T07:16:50.690Z,77.37
2022-12-04T07:19:18.509Z,72.80
2022-12-04T07:21:47.534Z,73.87
2022-12-04T07:24:17.227Z,77.33
2022-12-04T07:26:46.362Z,80.40
2022-12-04T07:29:14.523Z,74.87
2022-12-04T07:31:44.175Z,83.33
2022-12-04T07:34:12.139Z,78.13
2022-12-04T07:36:41.048Z,83.53
2022-12-04T07:39:10.448Z,81.03
2022-12-04T07:41:38.325Z,89.30
2022-12-04T07:44:06.349Z,74.87
2022-12-04T07:46:34.183Z,80.73
2022-12-04T07:49:02.212Z,83.87
2022-12-04T07:51:31.943Z,78.13
2022-12-04T07:54:03.547Z,79.83
2022-12-04T07:56:34.459Z,77.33
2022-12-04T07:59:03.053Z,82.43
2022-12-04T08:01:31.571Z,86.33
2022-12-04T08:04:01.098Z,83.87
2022-12-04T08:06:30.046Z,87.97
2022-12-04T08:08:58.362Z,82.87
2022-12-04T08:11:28.360Z,80.57
2022-12-04T08:13:59.070Z,80.70
2022-12-04T08:16:28.439Z,82.53
2022-12-04T08:18:57.349Z,80.90
2022-12-04T08:21:28.201Z,83.67
2022-12-04T08:23:58.096Z,88.07
2022-12-04T08:26:28.140Z,84.03
2022-12-04T08:28:58.374Z,84.40
2022-12-04T08:31:28.323Z,100.63
2022-12-04T08:33:58.406Z,84.73
2022-12-04T08:36:27.021Z,82.77
2022-12-04T08:38:55.247Z,79.23
2022-12-04T08:41:24.711Z,81.80
2022-12-04T08:43:54.517Z,82.30
2022-12-04T08:46:24.974Z,84.10
2022-12-04T08:48:52.932Z,78.83
2022-12-04T08:51:23.776Z,88.23
2022-12-04T08:53:56.485Z,85.90
2022-12-04T08:56:25.095Z,82.23
2022-12-04T08:58:52.844Z,84.10
2022-12-04T09:01:20.750Z,87.30
2022-12-04T09:03:50.139Z,82.70
2022-12-04T09:06:18.018Z,82.87
2022-12-04T09:08:45.873Z,82.67
2022-12-04T09:11:15.671Z,82.80
2022-12-04T09:13:44.409Z,86.53
2022-12-04T09:16:18.357Z,80.87
2022-12-04T09:18:46.130Z,87.17
2022-12-04T09:21:17.386Z,79.30
2022-12-04T09:23:45.839Z,77.33
2022-12-04T09:26:23.197Z,82.07
2022-12-04T09:28:51.728Z,90.03
2022-12-04T09:31:20.521Z,85.23
2022-12-04T09:33:48.686Z,77.57
2022-12-04T09:36:18.247Z,84.83
2022-12-04T09:38:47.434Z,79.77
2022-12-04T09:41:50.275Z,77.03
2022-12-04T09:44:22.229Z,86.40
2022-12-04T09:46:54.425Z,74.67
2022-12-04T09:49:26.539Z,79.73
2022-12-04T09:52:00.476Z,75.07
2022-12-04T09:54:33.165Z,78.33
2022-12-04T09:57:04.529Z,82.03
2022-12-04T09:59:33.633Z,82.90
2022-12-04T10:02:04.653Z,79.73
2022-12-04T10:04:32.529Z,84.07
2022-12-04T10:07:08.820Z,72.30
2022-12-04T10:09:42.200Z,80.20
2022-12-04T10:12:23.406Z,78.37
2022-12-04T10:15:13.123Z,85.27
2022-12-04T10:18:08.774Z,69.67
2022-12-04T10:20:49.813Z,77.10
2022-12-04T10:23:32.897Z,74.47
2022-12-04T10:26:02.788Z,78.20
2022-12-04T10:28:35.148Z,77.37
2022-12-04T10:31:04.665Z,75.03
2022-12-04T10:33:38.885Z,78.20
2022-12-04T10:36:08.096Z,75.23
2022-12-04T10:38:43.753Z,73.60
2022-12-04T10:41:19.303Z,78.73
2022-12-04T10:43:49.280Z,70.37
2022-12-04T10:46:22.342Z,76.63
2022-12-04T10:48:53.459Z,72.03
2022-12-04T10:51:22.995Z,69.10
2022-12-04T10:53:52.989Z,71.57
2022-12-04T10:56:23.947Z,73.17
2022-12-04T10:59:00.267Z,71.10
2022-12-04T11:01:30.204Z,81.67
2022-12-04T11:04:01.775Z,72.10
2022-12-04T11:06:30.670Z,72.10
2022-12-04T11:09:01.013Z,75.47
2022-12-04T11:11:32.117Z,74.90
2022-12-04T11:14:05.168Z,65.60
2022-12-04T11:16:38.919Z,71.47
2022-12-04T11:19:21.327Z,73.40
2022-12-04T11:21:49.825Z,69.30
2022-12-04T11:24:24.298Z,66.67
2022-12-04T11:26:53.470Z,72.40
2022-12-04T11:29:31.588Z,74.53
2022-12-04T11:32:05.754Z,77.13
2022-12-04T11:34:40.172Z,70.07
2022-12-04T11:37:20.743Z,67.77
2022-12-04T11:39:51.136Z,72.00
2022-12-04T11:42:20.984Z,71.13
2022-12-04T11:44:54.709Z,70.80
2022-12-04T11:47:26.138Z,67.93
2022-12-04T11:50:03.518Z,69.93
2022-12-04T11:52:46.692Z,66.30
2022-12-04T11:55:23.910Z,69.90
2022-12-04T11:58:07.745Z,65.83
2022-12-04T12:00:45.801Z,69.90
2022-12-04T12:03:21.523Z,72.67
2022-12-04T12:06:17.061Z,66.47
2022-12-04T12:08:56.258Z,69.93
2022-12-04T12:11:31.306Z,64.80
2022-12-04T12:14:06.639Z,64.00
2022-12-04T12:16:48.500Z,68.53
2022-12-04T12:19:36.937Z,67.47
2022-12-04T12:22:14.736Z,69.00
2022-12-04T12:24:56.513Z,66.57
2022-12-04T12:27:42.309Z,63.80
2022-12-04T12:30:15.491Z,68.43
2022-12-04T12:33:00.286Z,65.20
2022-12-04T12:35:34.304Z,63.57
2022-12-04T12:38:04.816Z,67.53
2022-12-04T12:40:36.937Z,68.23
2022-12-04T12:43:09.271Z,70.13
2022-12-04T12:45:46.722Z,66.40
2022-12-04T12:48:27.348Z,62.73
2022-12-04T12:51:21.896Z,63.23
2022-12-04T12:53:53.561Z,63.20
2022-12-04T12:56:31.507Z,64.43
2022-12-04T12:59:05.367Z,62.17
2022-12-04T13:01:42.827Z,60.63
2022-12-04T13:04:15.641Z,63.63
2022-12-04T13:06:46.610Z,60.50
2022-12-04T13:09:25.429Z,63.53
2022-12-04T13:11:59.732Z,62.73
2022-12-04T13:14:28.897Z,62.30
2022-12-04T13:17:02.583Z,60.40
2022-12-04T13:19:34.378Z,67.30
2022-12-04T13:22:14.969Z,60.23
2022-12-04T13:25:10.571Z,62.53
2022-12-04T13:27:52.532Z,64.63
2022-12-04T13:30:24.402Z,64.23
2022-12-04T13:33:24.347Z,66.40
2022-12-04T13:36:11.080Z,69.23
2022-12-04T13:38:56.481Z,64.23
2022-12-04T13:41:27.302Z,57.20
2022-12-04T13:43:57.487Z,75.27
2022-12-04T13:46:34.395Z,67.23
2022-12-04T13:49:09.938Z,64.83
2022-12-04T13:51:39.235Z,63.43
2022-12-04T13:54:26.968Z,67.53
2022-12-04T13:56:56.814Z,64.70
2022-12-04T13:59:36.391Z,63.67
2022-12-04T14:02:23.047Z,63.50
2022-12-04T14:04:58.197Z,73.50
2022-12-04T14:07:32.874Z,64.70
2022-12-04T14:10:04.773Z,69.37
2022-12-04T14:12:36.092Z,73.17
2022-12-04T14:15:07.865Z,70.10
2022-12-04T14:17:39.659Z,64.13
2022-12-04T14:20:12.626Z,65.00
2022-12-04T14:22:44.354Z,70.80
2022-12-04T14:25:35.560Z,68.17
2022-12-04T14:28:15.392Z,67.77
2022-12-04T14:30:45.816Z,75.90
2022-12-04T14:33:20.075Z,67.63
2022-12-04T14:35:51.408Z,71.73
2022-12-04T14:38:22.776Z,76.40
2022-12-04T14:40:52.943Z,74.27
2022-12-04T14:43:24.048Z,65.40
2022-12-04T14:45:58.141Z,69.57
2022-12-04T14:48:36.798Z,69.03
2022-12-04T14:51:13.656Z,78.20
2022-12-04T14:53:48.049Z,70.03
2022-12-04T14:56:27.903Z,81.43
2022-12-04T14:58:56.623Z,64.27
2022-12-04T15:01:29.317Z,68.53
2022-12-04T15:04:03.585Z,66.17
2022-12-04T15:06:34.084Z,69.70
2022-12-04T15:09:17.782Z,67.27
2022-12-04T15:12:09.560Z,58.97
2022-12-04T15:14:41.883Z,69.47
2022-12-04T15:17:11.458Z,74.93
2022-12-04T15:19:41.471Z,74.10
2022-12-04T15:22:14.407Z,77.17
2022-12-04T15:24:42.324Z,72.57
2022-12-04T15:27:11.990Z,67.53
2022-12-04T15:29:48.162Z,73.63
2022-12-04T15:32:18.784Z,72.63
2022-12-04T15:34:52.701Z,75.87
2022-12-04T15:37:24.885Z,72.40
2022-12-04T15:39:53.913Z,77.20
2022-12-04T15:42:27.754Z,79.00
2022-12-04T15:45:01.630Z,65.90
2022-12-04T15:47:31.485Z,70.70
2022-12-04T15:50:11.931Z,68.83
2022-12-04T15:52:49.022Z,70.23
2022-12-04T15:55:18.963Z,71.33
2022-12-04T15:57:53.566Z,69.10
2022-12-04T16:00:28.169Z,75.40
2022-12-04T16:02:57.200Z,70.50
2022-12-04T16:05:34.996Z,71.37
2022-12-04T16:08:04.999Z,69.80
2022-12-04T16:10:34.848Z,75.00
2022-12-04T16:13:04.450Z,74.87
2022-12-04T16:15:38.510Z,73.53
2022-12-04T16:18:08.033Z,69.43
2022-12-04T16:20:38.936Z,78.87
2022-12-04T16:23:07.041Z,61.87
2022-12-04T16:25:34.786Z,73.27
2022-12-04T16:28:03.062Z,68.90
2022-12-04T16:30:33.866Z,65.13
2022-12-04T16:33:01.759Z,67.83
2022-12-04T16:35:31.182Z,67.00
2022-12-04T16:38:00.509Z,70.63
2022-12-04T16:40:28.619Z,69.87
2022-12-04T16:42:56.437Z,64.33
2022-12-04T16:45:28.622Z,66.57
2022-12-04T16:47:58.070Z,76.17
2022-12-04T16:50:26.788Z,68.60
2022-12-04T16:52:54.975Z,79.30
2022-12-04T16:55:29.630Z,67.87
2022-12-04T16:57:57.526Z,70.80
2022-12-04T17:00:25.480Z,71.87
2022-12-04T17:02:54.079Z,76.37
2022-12-04T17:05:25.035Z,71.63
2022-12-04T17:07:53.241Z,70.87
2022-12-04T17:10:24.179Z,75.40
2022-12-04T17:12:54.777Z,74.33
2022-12-04T17:15:22.965Z,66.80
2022-12-04T17:17:51.055Z,69.87
2022-12-04T17:20:20.977Z,72.67
2022-12-04T17:22:49.944Z,73.63
2022-12-04T17:25:18.861Z,70.50
2022-12-04T17:27:47.071Z,69.50
2022-12-04T17:30:19.412Z,70.40
2022-12-04T17:32:57.187Z,72.83
2022-12-04T17:35:25.718Z,71.40
2022-12-04T17:37:53.611Z,67.70
2022-12-04T17:40:21.851Z,72.63
2022-12-04T17:42:49.921Z,77.53
2022-12-04T17:45:19.568Z,71.07
2022-12-04T17:47:47.728Z,70.50
2022-12-04T17:50:17.065Z,73.93
2022-12-04T17:52:44.893Z,69.17
2022-12-04T17:55:12.881Z,71.53
2022-12-04T17:57:44.035Z,71.77
2022-12-04T18:00:17.017Z,73.83
2022-12-04T18:02:52.834Z,67.43
2022-12-04T18:05:21.149Z,75.40
2022-12-04T18:07:49.260Z,74.87
2022-12-04T18:10:17.172Z,67.00
2022-12-04T18:12:44.996Z,67.60
2022-12-04T18:15:12.793Z,75.57
2022-12-04T18:17:40.730Z,71.37
2022-12-04T18:20:11.101Z,71.37
2022-12-04T18:22:39.240Z,75.37
2022-12-04T18:25:14.918Z,80.47
2022-12-04T18:27:42.719Z,78.13
2022-12-04T18:30:11.840Z,83.40
2022-12-04T18:32:39.622Z,72.23
2022-12-04T18:35:08.106Z,77.47
2022-12-04T18:37:35.934Z,83.90
2022-12-04T18:40:06.837Z,82.40
2022-12-04T18:42:36.663Z,81.70
2022-12-04T18:45:05.081Z,82.33
2022-12-04T18:47:32.941Z,78.43
2022-12-04T18:50:01.009Z,85.77
2022-12-04T18:52:28.984Z,77.43
2022-12-04T18:54:56.923Z,80.83
2022-12-04T18:57:24.774Z,74.67
2022-12-04T18:59:54.161Z,81.50
2022-12-04T19:02:22.555Z,69.70
2022-12-04T19:04:50.628Z,83.50
2022-12-04T19:07:19.511Z,80.43
2022-12-04T19:10:10.396Z,84.37
2022-12-04T19:12:35.358Z,82.67
2022-12-04T19:15:04.980Z,84.97
2022-12-04T19:17:32.904Z,86.57
2022-12-04T19:20:01.718Z,81.40
2022-12-04T19:22:30.660Z,84.13
2022-12-04T19:24:58.765Z,82.17
2022-12-04T19:27:27.684Z,87.67
2022-12-04T19:29:55.846Z,81.37
2022-12-04T19:32:25.732Z,79.70
2022-12-04T19:34:53.717Z,77.60
2022-12-04T19:37:21.641Z,79.00
2022-12-04T19:39:49.570Z,77.00
2022-12-04T19:42:17.623Z,75.43
2022-12-04T19:44:49.655Z,79.50
2022-12-04T19:47:18.285Z,81.13
2022-12-04T19:49:47.883Z,77.43
2022-12-04T19:52:16.096Z,87.67
2022-12-04T19:54:44.210Z,95.53
2022-12-04T19:57:12.855Z,83.83
2022-12-04T19:59:45.976Z,80.37
2022-12-04T20:02:15.294Z,77.60
2022-12-04T20:04:43.682Z,78.27
2022-12-04T20:07:12.979Z,81.80
2022-12-04T20:09:41.023Z,92.53
2022-12-04T20:12:09.510Z,79.43
2022-12-04T20:14:37.420Z,70.53
2022-12-04T20:17:05.477Z,82.47
2022-12-04T20:19:33.558Z,79.77
2022-12-04T20:22:01.406Z,78.63
2022-12-04T20:24:30.765Z,74.53
2022-12-04T20:26:58.754Z,80.20
2022-12-04T20:29:26.666Z,82.47
2022-12-04T20:31:54.493Z,76.30
2022-12-04T20:34:22.342Z,77.63
2022-12-04T20:36:50.654Z,74.27
2022-12-04T20:39:19.894Z,76.53
2022-12-04T20:41:49.261Z,72.47
2022-12-04T20:44:19.824Z,72.73
2022-12-04T20:46:48.407Z,68.40
2022-12-04T20:49:22.013Z,71.80
2022-12-04T20:51:52.390Z,74.13
2022-12-04T20:54:21.916Z,68.80
2022-12-04T20:56:53.100Z,67.47
2022-12-04T20:59:23.116Z,69.37
2022-12-04T21:01:51.523Z,70.17
2022-12-04T21:04:20.307Z,78.23
2022-12-04T21:06:48.386Z,69.43
2022-12-04T21:09:18.051Z,65.87
2022-12-04T21:11:48.169Z,64.60
2022-12-04T21:14:37.037Z,71.70
2022-12-04T21:17:06.842Z,62.20
2022-12-04T21:19:34.757Z,64.97
2022-12-04T21:22:02.704Z,70.77
2022-12-04T21:24:36.312Z,69.23
2022-12-04T21:27:04.269Z,63.67
2022-12-04T21:29:34.078Z,65.77
2022-12-04T21:32:02.357Z,67.97
2022-12-04T21:34:30.130Z,64.07
2022-12-04T21:36:59.155Z,72.20
2022-12-04T21:39:27.013Z,66.00
2022-12-04T21:42:12.391Z,59.30
2022-12-04T21:44:41.733Z,63.40
2022-12-04T21:47:09.636Z,62.70
2022-12-04T21:49:37.635Z,64.10
2022-12-04T21:52:05.482Z,65.23
2022-12-04T21:54:33.345Z,74.80
2022-12-04T21:57:01.388Z,68.97
2022-12-04T21:59:29.412Z,70.87
2022-12-04T22:01:58.787Z,68.43
2022-12-04T22:04:26.754Z,61.93
2022-12-04T22:06:54.735Z,66.43
2022-12-04T22:09:22.629Z,75.47
2022-12-04T22:11:50.466Z,73.37
2022-12-04T22:14:18.737Z,68.43
2022-12-04T22:16:46.690Z,66.00
2022-12-04T22:19:15.861Z,73.17
2022-12-04T22:21:43.981Z,62.73
2022-12-04T22:24:12.135Z,66.23
2022-12-04T22:26:40.620Z,66.50
2022-12-04T22:29:34.042Z,69.13
2022-12-04T22:31:56.556Z,64.63
2022-12-04T22:34:25.890Z,73.63
2022-12-04T22:36:53.637Z,74.43
2022-12-04T22:39:21.400Z,70.20
2022-12-04T22:41:49.194Z,69.47
2022-12-04T22:44:17.213Z,76.17
2022-12-04T22:46:45.078Z,71.83
2022-12-04T22:49:13.008Z,71.60
2022-12-04T22:51:42.142Z,68.37
2022-12-04T22:54:14.207Z,62.83
2022-12-04T22:56:43.248Z,74.03
2022-12-04T22:59:11.415Z,68.40
2022-12-04T23:01:39.311Z,79.17
2022-12-04T23:04:07.145Z,71.33
2022-12-04T23:06:35.795Z,72.37
2022-12-04T23:09:07.100Z,71.10
2022-12-04T23:11:35.803Z,77.93
2022-12-04T23:14:06.302Z,75.60
2022-12-04T23:16:37.772Z,72.30
2022-12-04T23:19:06.949Z,71.73
2022-12-04T23:21:35.509Z,73.00
2022-12-04T23:24:05.186Z,74.13
2022-12-04T23:26:36.306Z,76.47
2022-12-04T23:29:05.320Z,71.67
2022-12-04T23:34:30.325Z,79.73
2022-12-04T23:39:51.855Z,72.00
2022-12-04T23:42:19.662Z,75.37
2022-12-04T23:44:47.540Z,71.63
2022-12-04T23:47:18.237Z,75.67
2022-12-04T23:49:46.078Z,77.67
2022-12-04T23:52:13.911Z,83.10
2022-12-04T23:54:41.839Z,79.33
2022-12-04T23:57:12.180Z,84.40
2022-12-04T23:59:40.005Z,78.77
